Unity N — V7WI2 — position and weather

sailwx.info

Track history (hours):
 
Tides and Currents Weather Stations Pressure Air Temp Water Temp Dewpoint Dewpoint Depression Visibility Wind Speed Wind Dir Waves Ship Positions

Unity N

Last reported at 2016-Jun-28 12:10 UTC. Time now 2016-Jul-01 08:13 UTC.
Position N 29°41' E 122°34'.

Length 229 m; draft 10.6 m.

Type: Cargo ship. MMSI: 538006451.

Date/timePositionNaut miles runAvg speedWind from/ knotsBaromVisibWave heightAir tempDewpointWater temp
2016-Jun-28 12:10N 29°41' E 122°34'912.8
2016-Jun-28 11:27N 29°43' E 122°23'1112.3
2016-Jun-28 10:33N 29°49' E 122°13'1110.9
2016-Jun-28 09:33N 29°55' E 122°03'7 7.5
2016-Jun-28 08:33N 30°02' E 121°59'0 0.3
2016-Jun-28 07:07N 30°02' E 121°59'0 0.0
2016-Jun-28 04:22N 30°02' E 121°59'0 0.0
2016-Jun-28 03:19N 30°02' E 121°59'0 0.0
2016-Jun-28 02:31N 30°02' E 121°59'0 0.0
2016-Jun-28 01:25N 30°02' E 121°59'0 0.0
2016-Jun-28 00:04N 30°02' E 121°59'0 0.0
2016-Jun-27 23:13N 30°02' E 121°59'0 0.0
2016-Jun-27 21:25N 30°02' E 121°59'0 0.0
2016-Jun-27 20:19N 30°02' E 121°59'0 0.0
2016-Jun-27 19:31N 30°02' E 121°59'0 0.0
2016-Jun-27 18:19N 30°02' E 121°59'0 0.0
2016-Jun-27 17:31N 30°02' E 121°59'0 0.0
2016-Jun-27 16:31N 30°02' E 121°59'0 0.0
2016-Jun-27 15:31N 30°02' E 121°59'0 0.0
2016-Jun-27 14:31N 30°02' E 121°59'0 0.0
2016-Jun-27 11:19N 30°02' E 121°59'1 1.1
2016-Jun-27 10:31N 30°01' E 121°59'1 0.5
2016-Jun-27 08:15N 30°00' E 121°58'0 0.1
2016-Jun-27 07:21N 30°00' E 121°58'2 3.1
2016-Jun-27 06:33N 29°58' E 121°59'10 9.7
2016-Jun-27 05:32N 29°55' E 122°10'1212.5
2016-Jun-27 04:32N 29°45' E 122°19'1010.6
2016-Jun-27 03:33N 29°41' E 122°31'4 1.1
2016-Jun-27 00:20N 29°38' E 122°31'0 0.1
2016-Jun-26 22:31N 29°38' E 122°31'  
2016-Jun-19 13:26N 01°16' E 104°09'910.4
2016-Jun-19 12:33N 01°15' E 103°60'4 4.4
2016-Jun-19 11:31N 01°17' E 103°56'0 0.0
2016-Jun-19 10:25N 01°17' E 103°56'0 0.0
2016-Jun-19 08:22N 01°17' E 103°56'0 0.2
2016-Jun-19 07:17N 01°17' E 103°57'0 0.0
2016-Jun-19 06:33N 01°17' E 103°57'0 0.1
2016-Jun-19 05:33N 01°17' E 103°57'0 0.0
2016-Jun-19 04:31N 01°17' E 103°57'0 0.0
2016-Jun-19 03:33N 01°17' E 103°57'0 0.0
2016-Jun-19 02:33N 01°17' E 103°57'0 0.0
2016-Jun-19 01:33N 01°17' E 103°57'0 0.1
2016-Jun-19 00:28N 01°17' E 103°57'0 0.1
2016-Jun-18 23:33N 01°17' E 103°57'2 2.0
2016-Jun-18 22:33N 01°16' E 103°58'3 2.7
2016-Jun-18 21:33N 01°13' E 103°59'3 2.7
2016-Jun-18 20:33N 01°13' E 103°56'6 5.1
2016-Jun-18 19:27N 01°11' E 103°51'6 6.6
2016-Jun-18 18:29N 01°08' E 103°45'  
Track history (hours):
 
Tides and Currents Weather Stations Pressure Air Temp Water Temp Dewpoint Dewpoint Depression Visibility Wind Speed Wind Dir Waves Ship Positions

Unity N

Last reported at 2016-Jun-28 12:10 UTC. Time now 2016-Jul-01 08:13 UTC.
Position N 29°41' E 122°34'.

Length 229 m; draft 10.6 m.

Type: Cargo ship. MMSI: 538006451.

Date/timePositionNaut miles runAvg speedWind from/ knotsBaromVisibWave heightAir tempDewpointWater temp
2016-Jun-28 12:10N 29°41' E 122°34'912.8
2016-Jun-28 11:27N 29°43' E 122°23'1112.3
2016-Jun-28 10:33N 29°49' E 122°13'1110.9
2016-Jun-28 09:33N 29°55' E 122°03'7 7.5
2016-Jun-28 08:33N 30°02' E 121°59'0 0.3
2016-Jun-28 07:07N 30°02' E 121°59'0 0.0
2016-Jun-28 04:22N 30°02' E 121°59'0 0.0
2016-Jun-28 03:19N 30°02' E 121°59'0 0.0
2016-Jun-28 02:31N 30°02' E 121°59'0 0.0
2016-Jun-28 01:25N 30°02' E 121°59'0 0.0
2016-Jun-28 00:04N 30°02' E 121°59'0 0.0
2016-Jun-27 23:13N 30°02' E 121°59'0 0.0
2016-Jun-27 21:25N 30°02' E 121°59'0 0.0
2016-Jun-27 20:19N 30°02' E 121°59'0 0.0
2016-Jun-27 19:31N 30°02' E 121°59'0 0.0
2016-Jun-27 18:19N 30°02' E 121°59'0 0.0
2016-Jun-27 17:31N 30°02' E 121°59'0 0.0
2016-Jun-27 16:31N 30°02' E 121°59'0 0.0
2016-Jun-27 15:31N 30°02' E 121°59'0 0.0
2016-Jun-27 14:31N 30°02' E 121°59'0 0.0
2016-Jun-27 11:19N 30°02' E 121°59'1 1.1
2016-Jun-27 10:31N 30°01' E 121°59'1 0.5
2016-Jun-27 08:15N 30°00' E 121°58'0 0.1
2016-Jun-27 07:21N 30°00' E 121°58'2 3.1
2016-Jun-27 06:33N 29°58' E 121°59'10 9.7
2016-Jun-27 05:32N 29°55' E 122°10'1212.5
2016-Jun-27 04:32N 29°45' E 122°19'1010.6
2016-Jun-27 03:33N 29°41' E 122°31'4 1.1
2016-Jun-27 00:20N 29°38' E 122°31'0 0.1
2016-Jun-26 22:31N 29°38' E 122°31'  
2016-Jun-19 13:26N 01°16' E 104°09'910.4
2016-Jun-19 12:33N 01°15' E 103°60'4 4.4
2016-Jun-19 11:31N 01°17' E 103°56'0 0.0
2016-Jun-19 10:25N 01°17' E 103°56'0 0.0
2016-Jun-19 08:22N 01°17' E 103°56'0 0.2
2016-Jun-19 07:17N 01°17' E 103°57'0 0.0
2016-Jun-19 06:33N 01°17' E 103°57'0 0.1
2016-Jun-19 05:33N 01°17' E 103°57'0 0.0
2016-Jun-19 04:31N 01°17' E 103°57'0 0.0
2016-Jun-19 03:33N 01°17' E 103°57'0 0.0
2016-Jun-19 02:33N 01°17' E 103°57'0 0.0
2016-Jun-19 01:33N 01°17' E 103°57'0 0.1
2016-Jun-19 00:28N 01°17' E 103°57'0 0.1
2016-Jun-18 23:33N 01°17' E 103°57'2 2.0
2016-Jun-18 22:33N 01°16' E 103°58'3 2.7
2016-Jun-18 21:33N 01°13' E 103°59'3 2.7
2016-Jun-18 20:33N 01°13' E 103°56'6 5.1
2016-Jun-18 19:27N 01°11' E 103°51'6 6.6
2016-Jun-18 18:29N 01°08' E 103°45'  

Dump ship's entire track history